createdAt,value
2023-05-17T00:01:05.549Z,15.27
2023-05-17T00:03:36.233Z,20.42
2023-05-17T00:06:05.522Z,14.23
2023-05-17T00:08:34.646Z,16.65
2023-05-17T00:11:03.775Z,15.40
2023-05-17T00:13:32.806Z,12.45
2023-05-17T00:16:01.884Z,15.35
2023-05-17T00:18:31.696Z,15.50
2023-05-17T00:21:02.353Z,15.95
2023-05-17T00:23:31.404Z,13.60
2023-05-17T00:26:00.498Z,14.60
2023-05-17T00:28:29.534Z,14.40
2023-05-17T00:30:59.510Z,17.42
2023-05-17T00:33:28.594Z,15.35
2023-05-17T00:35:57.680Z,12.68
2023-05-17T00:38:28.162Z,13.10
2023-05-17T00:40:57.196Z,16.07
2023-05-17T00:43:26.588Z,18.58
2023-05-17T00:45:55.643Z,15.00
2023-05-17T00:48:26.573Z,17.08
2023-05-17T00:50:56.919Z,16.20
2023-05-17T00:53:28.829Z,16.48
2023-05-17T00:55:58.156Z,16.15
2023-05-17T00:58:27.423Z,19.40
2023-05-17T01:00:56.911Z,12.77
2023-05-17T01:03:26.094Z,16.52
2023-05-17T01:05:55.296Z,16.63
2023-05-17T01:08:24.419Z,16.00
2023-05-17T01:11:08.327Z,17.00
2023-05-17T01:13:46.854Z,17.02
2023-05-17T01:16:20.260Z,14.43
2023-05-17T01:18:55.748Z,17.05
2023-05-17T01:21:37.402Z,14.75
2023-05-17T01:24:23.029Z,17.05
2023-05-17T01:26:55.814Z,16.50
2023-05-17T01:29:27.748Z,20.08
2023-05-17T01:31:58.879Z,12.45
2023-05-17T01:34:28.427Z,17.02
2023-05-17T01:36:58.846Z,19.25
2023-05-17T01:39:28.308Z,16.60
2023-05-17T01:42:06.511Z,13.40
2023-05-17T01:44:43.716Z,16.75
2023-05-17T01:47:22.242Z,15.43
2023-05-17T01:49:55.258Z,21.25
2023-05-17T01:52:31.813Z,15.93
2023-05-17T01:55:10.249Z,16.00
2023-05-17T01:57:44.400Z,20.83
2023-05-17T02:00:16.223Z,16.17
2023-05-17T02:02:46.308Z,17.58
2023-05-17T02:05:15.818Z,19.07
2023-05-17T02:07:45.001Z,15.80
2023-05-17T02:10:14.642Z,19.27
2023-05-17T02:12:46.790Z,14.68
2023-05-17T02:15:16.751Z,18.98
2023-05-17T02:17:46.079Z,16.73
2023-05-17T02:20:17.075Z,13.55
2023-05-17T02:22:46.474Z,15.80
2023-05-17T02:25:15.526Z,14.10
2023-05-17T02:27:46.080Z,16.40
2023-05-17T02:30:18.170Z,15.68
2023-05-17T02:32:47.588Z,14.50
2023-05-17T02:35:16.755Z,17.15
2023-05-17T02:37:45.880Z,18.10
2023-05-17T02:40:15.396Z,17.80
2023-05-17T02:42:45.898Z,19.60
2023-05-17T02:45:14.981Z,16.48
2023-05-17T02:47:44.154Z,14.63
2023-05-17T02:50:13.329Z,15.70
2023-05-17T02:52:42.485Z,16.77
2023-05-17T02:55:11.768Z,14.70
2023-05-17T02:57:40.937Z,18.38
2023-05-17T03:00:12.490Z,16.35
2023-05-17T03:02:41.673Z,17.10
2023-05-17T03:05:11.288Z,16.25
2023-05-17T03:07:44.473Z,18.25
2023-05-17T03:10:13.740Z,19.33
2023-05-17T03:12:46.370Z,14.32
2023-05-17T03:15:19.251Z,16.38
2023-05-17T03:17:48.761Z,17.02
2023-05-17T03:20:20.007Z,19.65
2023-05-17T03:25:19.879Z,13.48
2023-05-17T03:27:49.088Z,15.13
2023-05-17T03:30:19.984Z,13.88
2023-05-17T03:32:51.581Z,14.25
2023-05-17T03:35:21.315Z,16.85
2023-05-17T03:37:54.255Z,16.35
2023-05-17T03:40:24.218Z,14.23
2023-05-17T03:42:54.265Z,12.52
2023-05-17T03:45:25.070Z,14.43
2023-05-17T03:47:54.196Z,16.90
2023-05-17T03:50:23.478Z,14.88
2023-05-17T03:52:53.195Z,14.85
2023-05-17T03:55:22.483Z,16.50
2023-05-17T03:57:51.644Z,15.30
2023-05-17T04:00:22.481Z,17.00
2023-05-17T04:02:56.061Z,16.58
2023-05-17T04:05:25.224Z,14.93
2023-05-17T04:07:55.703Z,16.98
2023-05-17T04:10:25.128Z,16.08
2023-05-17T04:12:54.192Z,10.98
2023-05-17T04:15:23.393Z,14.23
2023-05-17T04:17:52.674Z,13.05
2023-05-17T04:20:23.246Z,13.93
2023-05-17T04:22:52.396Z,13.07
2023-05-17T04:25:22.602Z,18.75
2023-05-17T04:27:51.888Z,15.95
2023-05-17T04:30:24.143Z,12.02
2023-05-17T04:32:53.301Z,14.88
2023-05-17T04:35:23.867Z,11.50
2023-05-17T04:37:55.249Z,16.50
2023-05-17T04:40:24.966Z,14.45
2023-05-17T04:42:54.163Z,16.83
2023-05-17T04:45:23.704Z,12.65
2023-05-17T04:47:53.791Z,13.95
2023-05-17T04:50:25.086Z,11.85
2023-05-17T04:52:54.224Z,12.00
2023-05-17T04:55:23.665Z,14.70
2023-05-17T04:57:52.838Z,14.60
2023-05-17T05:00:24.033Z,16.45
2023-05-17T05:03:00.879Z,13.63
2023-05-17T05:05:31.494Z,12.55
2023-05-17T05:08:00.814Z,15.05
2023-05-17T05:10:30.589Z,11.02
2023-05-17T05:12:59.918Z,15.52
2023-05-17T05:15:29.971Z,14.40
2023-05-17T05:18:01.650Z,13.25
2023-05-17T05:20:33.906Z,14.07
2023-05-17T05:23:06.144Z,12.27
2023-05-17T05:25:36.583Z,12.27
2023-05-17T05:28:06.093Z,15.98
2023-05-17T05:30:36.938Z,14.95
2023-05-17T05:33:07.059Z,15.15
2023-05-17T05:35:38.717Z,19.77
2023-05-17T05:38:07.823Z,14.50
2023-05-17T05:40:37.829Z,14.55
2023-05-17T05:43:06.961Z,13.05
2023-05-17T05:45:36.199Z,14.38
2023-05-17T05:48:08.894Z,17.63
2023-05-17T05:50:39.718Z,16.90
2023-05-17T05:53:18.692Z,17.85
2023-05-17T05:55:52.648Z,20.25
2023-05-17T05:58:22.721Z,15.85
2023-05-17T06:00:52.673Z,12.38
2023-05-17T06:03:21.949Z,16.42
2023-05-17T06:05:52.491Z,18.17
2023-05-17T06:08:21.580Z,17.83
2023-05-17T06:10:50.728Z,15.43
2023-05-17T06:13:19.778Z,20.88
2023-05-17T06:15:48.845Z,21.55
2023-05-17T06:18:18.075Z,15.60
2023-05-17T06:20:48.198Z,21.38
2023-05-17T06:23:18.686Z,21.25
2023-05-17T06:25:47.808Z,18.17
2023-05-17T06:28:16.891Z,17.80
2023-05-17T06:30:48.188Z,20.33
2023-05-17T06:33:17.365Z,15.27
2023-05-17T06:35:56.309Z,14.52
2023-05-17T06:38:28.076Z,15.00
2023-05-17T06:40:58.563Z,21.75
2023-05-17T06:43:27.745Z,17.75
2023-05-17T06:45:56.808Z,22.30
2023-05-17T06:48:26.180Z,18.08
2023-05-17T06:50:55.455Z,17.42
2023-05-17T06:53:24.522Z,18.08
2023-05-17T06:55:55.135Z,11.25
2023-05-17T06:58:24.197Z,15.38
2023-05-17T07:00:53.637Z,17.20
2023-05-17T07:03:23.058Z,19.55
2023-05-17T07:05:52.388Z,16.65
2023-05-17T07:08:21.584Z,14.20
2023-05-17T07:10:56.425Z,13.57
2023-05-17T07:13:26.622Z,15.98
2023-05-17T07:15:56.269Z,14.90
2023-05-17T07:18:25.462Z,17.52
2023-05-17T07:20:54.676Z,15.98
2023-05-17T07:23:23.919Z,17.65
2023-05-17T07:25:54.411Z,14.88
2023-05-17T07:28:23.512Z,16.97
2023-05-17T07:30:52.669Z,16.67
2023-05-17T07:33:21.756Z,16.35
2023-05-17T07:35:50.948Z,15.82
2023-05-17T07:38:20.053Z,12.70
2023-05-17T07:40:49.193Z,17.90
2023-05-17T07:43:22.633Z,17.02
2023-05-17T07:45:51.716Z,14.70
2023-05-17T07:48:21.027Z,19.30
2023-05-17T07:50:50.233Z,15.60
2023-05-17T07:53:19.351Z,17.88
2023-05-17T07:55:48.417Z,18.55
2023-05-17T07:58:17.465Z,15.52
2023-05-17T08:00:50.711Z,17.67
2023-05-17T08:03:19.756Z,14.60
2023-05-17T08:05:48.907Z,17.92
2023-05-17T08:08:17.953Z,15.68
2023-05-17T08:10:47.350Z,16.63
2023-05-17T08:13:16.486Z,16.45
2023-05-17T08:15:45.591Z,17.55
2023-05-17T08:18:16.191Z,16.02
2023-05-17T08:20:46.638Z,16.35
2023-05-17T08:23:15.669Z,15.47
2023-05-17T08:25:44.798Z,14.98
2023-05-17T08:28:13.854Z,15.63
2023-05-17T08:30:43.009Z,20.60
2023-05-17T08:33:12.292Z,17.75
2023-05-17T08:35:42.850Z,18.52
2023-05-17T08:38:11.954Z,17.73
2023-05-17T08:40:41.394Z,19.92
2023-05-17T08:43:13.034Z,19.17
2023-05-17T08:45:42.293Z,17.13
2023-05-17T08:48:11.524Z,14.90
2023-05-17T08:50:42.864Z,16.88
2023-05-17T08:53:13.719Z,16.00
2023-05-17T08:55:47.335Z,16.40
2023-05-17T08:58:17.985Z,18.08
2023-05-17T09:00:47.926Z,13.35
2023-05-17T09:03:19.897Z,15.20
2023-05-17T09:05:52.841Z,14.95
2023-05-17T09:08:23.369Z,14.55
2023-05-17T09:10:52.418Z,13.90
2023-05-17T09:13:21.610Z,14.23
2023-05-17T09:15:50.771Z,13.25
2023-05-17T09:18:20.307Z,16.30
2023-05-17T09:20:53.180Z,17.85
2023-05-17T09:23:23.451Z,15.65
2023-05-17T09:25:52.639Z,17.42
2023-05-17T09:28:21.745Z,13.88
2023-05-17T09:30:51.366Z,13.23
2023-05-17T09:33:24.465Z,12.45
2023-05-17T09:35:55.043Z,21.38
2023-05-17T09:38:27.706Z,15.02
2023-05-17T09:40:57.025Z,12.95
2023-05-17T09:43:27.052Z,14.88
2023-05-17T09:45:59.898Z,16.10
2023-05-17T09:48:29.126Z,14.93
2023-05-17T09:50:59.854Z,18.30
2023-05-17T09:53:30.095Z,18.42
2023-05-17T09:56:00.545Z,16.45
2023-05-17T09:58:32.874Z,11.93
2023-05-17T10:01:03.782Z,17.42
2023-05-17T10:03:36.166Z,14.52
2023-05-17T10:06:13.409Z,15.10
2023-05-17T10:08:53.667Z,16.85
2023-05-17T10:11:28.054Z,13.77
2023-05-17T10:14:06.634Z,15.18
2023-05-17T10:16:35.935Z,18.80
2023-05-17T10:19:05.270Z,20.13
2023-05-17T10:21:37.021Z,17.95
2023-05-17T10:24:08.077Z,19.23
2023-05-17T10:26:38.652Z,14.95
2023-05-17T10:29:08.613Z,15.73
2023-05-17T10:31:37.668Z,17.38
2023-05-17T10:34:07.592Z,18.60
2023-05-17T10:36:39.299Z,16.48
2023-05-17T10:39:09.153Z,14.95
2023-05-17T10:41:42.114Z,18.58
2023-05-17T10:44:15.098Z,19.20
2023-05-17T10:46:53.309Z,15.45
2023-05-17T10:49:25.065Z,16.73
2023-05-17T10:51:56.088Z,22.45
2023-05-17T10:54:36.052Z,22.17
2023-05-17T10:57:08.727Z,18.30
2023-05-17T10:59:59.838Z,24.67
2023-05-17T11:02:43.511Z,20.40
2023-05-17T11:05:25.794Z,21.23
2023-05-17T11:08:14.352Z,20.40
2023-05-17T11:11:11.520Z,23.55
2023-05-17T11:13:48.235Z,19.50
2023-05-17T11:16:18.405Z,21.55
2023-05-17T11:18:48.865Z,21.20
2023-05-17T11:21:18.504Z,21.58
2023-05-17T11:23:50.253Z,24.02
2023-05-17T11:26:23.799Z,20.48
2023-05-17T11:29:02.740Z,19.90
2023-05-17T11:31:33.550Z,29.10
2023-05-17T11:34:04.498Z,22.80
2023-05-17T11:36:49.748Z,25.73
2023-05-17T11:39:22.163Z,23.40
2023-05-17T11:41:53.110Z,26.48
2023-05-17T11:44:28.602Z,23.77
2023-05-17T11:47:04.750Z,25.83
2023-05-17T11:49:38.177Z,26.48
2023-05-17T11:52:08.619Z,27.35
2023-05-17T11:54:40.309Z,23.43
2023-05-17T11:57:10.618Z,22.35
2023-05-17T11:59:40.594Z,23.27
2023-05-17T12:02:10.076Z,26.33
2023-05-17T12:04:40.220Z,26.77
2023-05-17T12:07:11.044Z,29.83
2023-05-17T12:09:41.817Z,28.35
2023-05-17T12:12:10.954Z,29.00
2023-05-17T12:14:40.158Z,22.50
2023-05-17T12:17:10.421Z,26.67
2023-05-17T12:19:39.657Z,22.85
2023-05-17T12:22:12.478Z,23.08
2023-05-17T12:24:44.358Z,19.95
2023-05-17T12:27:13.440Z,23.35
2023-05-17T12:29:42.568Z,20.33
2023-05-17T12:32:12.201Z,21.25
2023-05-17T12:34:41.962Z,19.70
2023-05-17T12:37:13.318Z,20.77
2023-05-17T12:42:12.944Z,27.65
2023-05-17T12:44:42.026Z,27.13
2023-05-17T12:47:11.842Z,24.38
2023-05-17T12:49:41.347Z,25.08
2023-05-17T12:52:11.931Z,24.48
2023-05-17T12:54:41.630Z,25.92
2023-05-17T12:57:16.174Z,22.38
2023-05-17T12:59:49.915Z,26.15
2023-05-17T13:02:20.921Z,25.02
2023-05-17T13:04:50.236Z,20.85
2023-05-17T13:07:24.568Z,23.92
2023-05-17T13:09:53.711Z,27.42
2023-05-17T13:12:26.110Z,23.00
2023-05-17T13:14:55.565Z,20.30
2023-05-17T13:17:27.622Z,23.70
2023-05-17T13:19:58.388Z,27.67
2023-05-17T13:22:27.929Z,22.50
2023-05-17T13:24:57.036Z,20.08
2023-05-17T13:27:27.502Z,24.40
2023-05-17T13:29:56.590Z,24.20
2023-05-17T13:32:26.143Z,22.70
2023-05-17T13:34:55.340Z,21.10
2023-05-17T13:37:24.402Z,22.92
2023-05-17T13:39:54.866Z,19.05
2023-05-17T13:42:24.577Z,21.95
2023-05-17T13:44:55.063Z,23.50
2023-05-17T13:47:24.389Z,21.20
2023-05-17T13:49:53.591Z,21.88
2023-05-17T13:52:23.260Z,19.83
2023-05-17T13:54:52.454Z,20.90
2023-05-17T13:57:21.469Z,21.67
2023-05-17T13:59:50.685Z,24.42
2023-05-17T14:02:21.141Z,25.40
2023-05-17T14:04:50.765Z,21.47
2023-05-17T14:07:19.847Z,21.90
2023-05-17T14:09:48.961Z,23.92
2023-05-17T14:12:18.104Z,23.63
2023-05-17T14:14:47.237Z,19.92
2023-05-17T14:17:16.673Z,20.42
2023-05-17T14:19:47.343Z,21.52
2023-05-17T14:22:16.647Z,19.90
2023-05-17T14:24:45.814Z,21.70
2023-05-17T14:27:14.910Z,19.25
2023-05-17T14:29:43.994Z,20.20
2023-05-17T14:32:14.210Z,22.98
2023-05-17T14:34:43.345Z,20.17
2023-05-17T14:37:14.846Z,20.77
2023-05-17T14:39:49.480Z,14.65
2023-05-17T14:42:27.991Z,19.08
2023-05-17T14:44:57.081Z,22.80
2023-05-17T14:47:26.335Z,15.45
2023-05-17T14:49:55.483Z,20.10
2023-05-17T14:52:27.796Z,18.85
2023-05-17T14:54:57.008Z,15.82
2023-05-17T14:57:26.099Z,17.17
2023-05-17T14:59:55.142Z,16.67
2023-05-17T15:02:24.368Z,18.02
2023-05-17T15:04:53.704Z,17.92
2023-05-17T15:07:22.880Z,19.45
2023-05-17T15:09:53.409Z,16.02
2023-05-17T15:12:23.014Z,16.58
2023-05-17T15:14:52.487Z,15.25
2023-05-17T15:17:21.755Z,15.88
2023-05-17T15:19:51.488Z,20.65
2023-05-17T15:22:20.873Z,19.45
2023-05-17T15:24:50.123Z,16.00
2023-05-17T15:27:20.543Z,19.52
2023-05-17T15:29:49.664Z,18.23
2023-05-17T15:32:18.726Z,21.05
2023-05-17T15:34:47.846Z,13.30
2023-05-17T15:37:16.924Z,17.50
2023-05-17T15:39:46.138Z,17.27
2023-05-17T15:42:15.194Z,19.40
2023-05-17T15:44:45.691Z,18.65
2023-05-17T15:47:14.740Z,25.17
2023-05-17T15:49:43.787Z,15.75
2023-05-17T15:52:13.000Z,18.55
2023-05-17T15:54:42.505Z,22.05
2023-05-17T15:57:11.568Z,23.25
2023-05-17T15:59:40.644Z,17.15
2023-05-17T16:02:11.153Z,18.83
2023-05-17T16:04:40.338Z,25.70
2023-05-17T16:07:09.422Z,15.02
2023-05-17T16:09:38.714Z,18.05
2023-05-17T16:12:08.322Z,16.45
2023-05-17T16:14:39.121Z,19.60
2023-05-17T16:17:08.244Z,14.77
2023-05-17T16:19:39.740Z,16.50
2023-05-17T16:22:09.649Z,22.80
2023-05-17T16:24:38.832Z,23.92
2023-05-17T16:27:08.503Z,20.92
2023-05-17T16:29:40.639Z,12.90
2023-05-17T16:32:12.139Z,22.67
2023-05-17T16:34:42.712Z,15.95
2023-05-17T16:37:12.303Z,18.67
2023-05-17T16:39:41.886Z,19.55
2023-05-17T16:42:11.002Z,19.00
2023-05-17T16:44:40.188Z,13.23
2023-05-17T16:47:09.360Z,13.80
2023-05-17T16:49:38.783Z,16.45
2023-05-17T16:52:10.146Z,18.83
2023-05-17T16:54:40.313Z,19.02
2023-05-17T16:57:09.543Z,21.13
2023-05-17T16:59:39.002Z,17.83
2023-05-17T17:02:08.395Z,20.85
2023-05-17T17:04:37.713Z,18.17
2023-05-17T17:07:08.348Z,13.05
2023-05-17T17:09:37.471Z,19.75
2023-05-17T17:12:16.245Z,17.63
2023-05-17T17:14:52.385Z,14.80
2023-05-17T17:17:21.512Z,19.90
2023-05-17T17:19:50.721Z,18.63
2023-05-17T17:22:21.261Z,13.43
2023-05-17T17:24:50.421Z,13.82
2023-05-17T17:27:19.624Z,24.27
2023-05-17T17:29:48.847Z,20.20
2023-05-17T17:32:18.149Z,16.80
2023-05-17T17:34:47.378Z,17.75
2023-05-17T17:37:16.450Z,19.02
2023-05-17T17:39:47.019Z,16.13
2023-05-17T17:42:16.251Z,23.03
2023-05-17T17:44:45.439Z,16.13
2023-05-17T17:47:14.680Z,12.35
2023-05-17T17:49:43.941Z,20.23
2023-05-17T17:52:13.026Z,19.05
2023-05-17T17:54:50.395Z,23.20
2023-05-17T17:57:22.861Z,13.80
2023-05-17T17:59:52.154Z,19.08
2023-05-17T18:02:21.196Z,20.33
2023-05-17T18:04:50.395Z,18.77
2023-05-17T18:07:19.531Z,20.70
2023-05-17T18:09:48.683Z,19.45
2023-05-17T18:12:17.830Z,25.45
2023-05-17T18:14:48.327Z,15.85
2023-05-17T18:17:17.401Z,16.60
2023-05-17T18:19:48.521Z,15.45
2023-05-17T18:22:19.069Z,19.20
2023-05-17T18:24:48.923Z,19.05
2023-05-17T18:27:18.241Z,20.35
2023-05-17T18:29:48.860Z,23.38
2023-05-17T18:32:18.120Z,23.80
2023-05-17T18:34:47.320Z,21.08
2023-05-17T18:37:17.670Z,21.80
2023-05-17T18:39:49.805Z,20.80
2023-05-17T18:42:19.596Z,22.63
2023-05-17T18:44:50.289Z,18.88
2023-05-17T18:47:19.429Z,19.23
2023-05-17T18:49:49.247Z,23.95
2023-05-17T18:52:18.318Z,23.33
2023-05-17T18:54:47.782Z,20.15
2023-05-17T18:57:16.833Z,19.48
2023-05-17T18:59:45.912Z,13.05
2023-05-17T19:02:16.766Z,17.73
2023-05-17T19:04:46.390Z,13.75
2023-05-17T19:07:15.472Z,12.57
2023-05-17T19:09:44.699Z,13.90
2023-05-17T19:12:13.896Z,15.13
2023-05-17T19:14:43.018Z,14.27
2023-05-17T19:17:12.204Z,12.25
2023-05-17T19:19:42.776Z,15.10
2023-05-17T19:22:11.878Z,11.70
2023-05-17T19:24:41.001Z,13.32
2023-05-17T19:27:11.118Z,11.82
2023-05-17T19:29:40.289Z,12.40
2023-05-17T19:32:09.725Z,10.50
2023-05-17T19:34:38.860Z,10.07
2023-05-17T19:37:09.450Z,12.85
2023-05-17T19:39:38.592Z,11.57
2023-05-17T19:42:07.841Z,12.52
2023-05-17T19:44:37.001Z,9.65
2023-05-17T19:47:07.728Z,13.05
2023-05-17T19:49:36.815Z,10.80
2023-05-17T19:52:06.553Z,10.15
2023-05-17T19:54:38.086Z,9.85
2023-05-17T19:57:08.041Z,13.63
2023-05-17T19:59:37.096Z,10.40
2023-05-17T20:02:06.717Z,11.38
2023-05-17T20:04:35.969Z,11.43
2023-05-17T20:07:05.026Z,12.00
2023-05-17T20:09:34.163Z,12.43
2023-05-17T20:12:05.042Z,13.32
2023-05-17T20:14:34.173Z,12.85
2023-05-17T20:17:03.367Z,13.60
2023-05-17T20:19:32.685Z,10.40
2023-05-17T20:22:02.526Z,13.20
2023-05-17T20:24:33.611Z,13.13
2023-05-17T20:27:04.840Z,15.15
2023-05-17T20:29:33.918Z,12.80
2023-05-17T20:32:03.230Z,14.45
2023-05-17T20:34:32.331Z,16.23
2023-05-17T20:37:01.452Z,14.25
2023-05-17T20:39:31.181Z,14.38
2023-05-17T20:42:01.346Z,15.10
2023-05-17T20:44:33.355Z,12.10
2023-05-17T20:47:02.500Z,15.73
2023-05-17T20:49:31.979Z,12.75
2023-05-17T20:52:03.497Z,12.20
2023-05-17T20:54:32.671Z,12.20
2023-05-17T20:57:02.096Z,11.70
2023-05-17T20:59:32.742Z,12.32
2023-05-17T21:02:02.912Z,17.02
2023-05-17T21:04:31.974Z,14.23
2023-05-17T21:07:01.114Z,16.95
2023-05-17T21:09:30.284Z,15.13
2023-05-17T21:11:59.428Z,14.70
2023-05-17T21:14:29.144Z,13.98
2023-05-17T21:16:59.621Z,13.38
2023-05-17T21:19:28.704Z,13.67
2023-05-17T21:21:57.787Z,13.60
2023-05-17T21:24:26.879Z,13.85
2023-05-17T21:26:55.971Z,14.18
2023-05-17T21:29:25.144Z,11.23
2023-05-17T21:31:54.298Z,10.05
2023-05-17T21:34:24.858Z,11.88
2023-05-17T21:36:54.883Z,16.37
2023-05-17T21:39:23.986Z,11.05
2023-05-17T21:41:53.046Z,14.60
2023-05-17T21:44:22.163Z,14.35
2023-05-17T21:46:51.270Z,15.07
2023-05-17T21:49:20.407Z,13.45
2023-05-17T21:51:50.867Z,13.35
2023-05-17T21:54:20.834Z,11.10
2023-05-17T21:56:49.942Z,10.15
2023-05-17T21:59:19.076Z,9.88
2023-05-17T22:01:48.258Z,13.77
2023-05-17T22:04:17.430Z,10.07
2023-05-17T22:06:46.592Z,9.63
2023-05-17T22:09:17.080Z,12.15
2023-05-17T22:11:46.293Z,11.63
2023-05-17T22:14:15.432Z,10.45
2023-05-17T22:16:44.596Z,11.07
2023-05-17T22:19:13.843Z,16.63
2023-05-17T22:21:42.998Z,11.85
2023-05-17T22:24:12.092Z,7.60
2023-05-17T22:26:42.826Z,8.40
2023-05-17T22:29:11.917Z,12.85
2023-05-17T22:31:41.053Z,10.65
2023-05-17T22:34:10.294Z,10.30
2023-05-17T22:36:42.253Z,11.02
2023-05-17T22:39:11.360Z,11.15
2023-05-17T22:41:40.635Z,10.02
2023-05-17T22:44:11.217Z,11.65
2023-05-17T22:46:42.106Z,9.18
2023-05-17T22:49:11.396Z,12.50
2023-05-17T22:51:40.521Z,14.27
2023-05-17T22:54:09.722Z,11.80
2023-05-17T22:56:38.761Z,14.35
2023-05-17T22:59:07.940Z,12.02
2023-05-17T23:01:38.434Z,11.07
2023-05-17T23:04:07.722Z,12.88
2023-05-17T23:06:36.835Z,9.88
2023-05-17T23:09:06.192Z,11.60
2023-05-17T23:11:35.919Z,9.73
2023-05-17T23:14:05.955Z,12.57
2023-05-17T23:16:36.152Z,12.30
2023-05-17T23:19:06.651Z,10.80
2023-05-17T23:21:35.794Z,10.83
2023-05-17T23:24:04.903Z,11.02
2023-05-17T23:26:34.137Z,10.75
2023-05-17T23:29:05.501Z,15.98
2023-05-17T23:31:34.987Z,14.88
2023-05-17T23:34:04.086Z,11.48
2023-05-17T23:36:34.687Z,13.02
2023-05-17T23:39:03.858Z,8.88
2023-05-17T23:41:33.459Z,11.85
2023-05-17T23:44:02.496Z,11.77
2023-05-17T23:46:31.592Z,12.82
2023-05-17T23:49:02.492Z,11.52
2023-05-17T23:51:33.278Z,9.35
2023-05-17T23:54:03.874Z,10.82
2023-05-17T23:56:32.908Z,9.60
2023-05-17T23:59:02.069Z,10.32
